This is the latest recevied weather packets stored in our database for station/object CE4ERM-13. If no packets are shown the sender has not sent any weather packets the latest 10 day(s).
| Time | Temp. | Humidity | Pressure | Rain* | Wind** | Luminosity | Snow |
|---|---|---|---|---|---|---|---|
| 1778018185 | 23.33° C | 40% | 1014 hPa | - | - | - | - |
| 1778017730 | 23.89° C | 41% | 1014.5 hPa | - | - | - | - |
| 1778017585 | 23.33° C | 40% | 1017 hPa | - | - | - | - |
| 1778016985 | 23.33° C | 39% | 1016.3 hPa | - | - | - | - |
| 1778016530 | 25.56° C | 39% | 1014.4 hPa | - | - | - | - |
| 1778016385 | 23.33° C | 39% | 1016 hPa | - | - | - | - |
| 1778015929 | 25.56° C | 38% | 1015.1 hPa | - | - | - | - |
| 1778015785 | 23.89° C | 38% | 1015.6 hPa | - | - | - | - |
| 1778015329 | 26.67° C | 37% | 1014.1 hPa | - | - | - | - |
| 1778015185 | 23.89° C | 38% | 1014.7 hPa | - | - | - | - |
| 1778014728 | 26.11° C | 37% | 1015 hPa | - | - | - | - |
| 1778014585 | 23.89° C | 37% | 1014.7 hPa | - | - | - | - |
| 1778013383 | 23.89° C | 37% | 1014.9 hPa | - | - | - | - |
| 1778012927 | 27.22° C | 34% | 1013.6 hPa | - | - | - | - |
| 1778012782 | 23.89° C | 37% | 1013.4 hPa | - | - | - | - |
| 1778012326 | 27.22° C | 33% | 1013.7 hPa | - | - | - | - |
| 1778011650 | 23.89° C | 36% | 1017.3 hPa | - | - | - | - |
| 1778011582 | 23.89° C | 36% | 1017.3 hPa | - | - | - | - |
| 1778010982 | 23.89° C | 36% | 1011.1 hPa | - | - | - | - |
| 1778010381 | 23.89° C | 36% | 1014.8 hPa | - | - | - | - |
| 1778009924 | 27.22° C | 33% | 1014.3 hPa | - | - | - | - |
| 1778009781 | 24.44° C | 35% | 1010.9 hPa | - | - | - | - |
| 1778009180 | 23.89° C | 35% | 1011.5 hPa | - | - | - | - |
| 1778008724 | 27.22° C | 32% | 1014 hPa | - | - | - | - |
| 1778008580 | 24.44° C | 34% | 1015.4 hPa | - | - | - | - |
* Rain since midnight (hover to see other rain measurements)
** Current wind speed in m/s (hover to see current wind gust speed)